CheckWX is a tool to help pilots better visualize weather data.  It is not intended as a substitute for an official pre-flight weather briefing.

07:44:02 UTC

FAOB METAR
Overberg Airport
Overberg, South Africa
Current

44 mins ago

FAOB 210700Z AUTO 35009KT //// // ////// 15/08 Q1023
Observed
May-21 @ 07:00 UTC
Wind
  • 350° at 9 KTS
Visibility
Temperature
15°C / 59°F
Dewpoint
C / 46°F
Humidity
63%
Altimeter
30.21" Hg
Pressure
1022.92 hPa
Previous

2 hours ago

FAOB 210600Z 34005KT 9999 SCT035 09/06 Q1022
Observed
May-21 @ 06:00 UTC
Wind
  • 340° at 5 KTS
Visibility
10,000+ meters
Flight Rules
VFR
Cloud Levels
  • Scattered at 3,500' AGL
Temperature
C / 48°F
Dewpoint
C / 43°F
Humidity
82%
Altimeter
30.18" Hg
Pressure
1021.92 hPa
Previous

4 hours ago

FAOB 210400Z AUTO 02005KT //// // ////// 10/06 Q1022
Observed
May-21 @ 04:00 UTC
Wind
  • 020° at 5 KTS
Visibility
Temperature
10°C / 50°F
Dewpoint
C / 43°F
Humidity
76%
Altimeter
30.18" Hg
Pressure
1021.92 hPa